Aérodrome :
LOGIN :

S'inscrire | Disclaimer

   EN    FR    IT 

 










Légende :    VFR   VFR Marginal   IFR   IFR Intensif   IFR Très Intensif
Visi : 
Plafond : 
>= 8 km
>= 3000ft
5 à 8 km
1000 à 3000 ft
1500m à 5 km
500 à 1000 ft
800 à 1500m
200 à 500 ft
< 800m
< 200 ft
Symboles :   Orages  Brouillard  Fortes neiges  Fortes précipitations  Vent > 20 kt
SIGMETs :   Divers  Orages  Givrage  Turbulence  Onde Orograph.  Cendres Volcan.







- Altitude de l'aérodrome : 1411 ft
- Code IATA : ZHI


LSZG - Grenchen

DERNIER METAR :
  • 141020Z 07004KT 040V220 9999 SCT020 BKN070 20/16 Q1018 NOSIG

METARs EXPIRÉS :
  • 140950Z 23005KT 9999 SCT020 BKN060 20/16 Q1018 NOSIG
  • 140920Z VRB02KT 9999 SCT020 BKN090 20/16 Q1018 NOSIG
  • 140850Z VRB01KT 9999 SCT020 BKN090 20/16 Q1017 NOSIG
  • 140820Z VRB02KT 9999 SCT020 BKN070 19/16 Q1017 NOSIG
  • 140750Z VRB01KT 9999 SCT013 BKN080 19/15 Q1017 NOSIG

TAF TAF LSZG
Valide du 14 à 09h jusqu'au 14 à 18h UTC


140825Z 1409/1418 VRB03KT 9999 SCT013 BKN080
PROB40
TEMPO 1409/1415 SHRA SCT020TCU BKN050
ATIS : +41 32 396 96 33
Pas de NOTAMs connus pour ce terrain.



MET'MAP, la Météo Aéronautique d'un coup d'oeil ! - Copyright ORBIFLY Décembre 2007 - Disclaimer

ORBIFLY MET'MAP TEAM :

Programmation & Développement : Alexandra Zaïnal
Conception & Développement : Baudouin d'Aumeries
Co-Programmation & Développement : Marc-Olivier Méhu
Soutien technique & logistique : Manuel Goepfert

Contact : metmap@orbifly.com




SOURCES & CREDITS :

   NOAA